sensor_id;sensor_type;location;lat;lon;timestamp;P1;durP1;ratioP1;P2;durP2;ratioP2
17133;SDS011;8682;52.120;5.252;2022-11-15T00:01:39;1361.53;;;872.10;;
17133;SDS011;8682;52.120;5.252;2022-11-15T00:04:06;1375.57;;;880.97;;
17133;SDS011;8682;52.120;5.252;2022-11-15T00:06:35;1345.60;;;845.00;;
17133;SDS011;8682;52.120;5.252;2022-11-15T00:09:02;1347.10;;;901.07;;
17133;SDS011;8682;52.120;5.252;2022-11-15T00:11:29;1114.53;;;787.10;;
17133;SDS011;8682;52.120;5.252;2022-11-15T00:13:57;1001.47;;;761.50;;
17133;SDS011;8682;52.120;5.252;2022-11-15T00:16:27;1486.77;;;935.20;;
17133;SDS011;8682;52.120;5.252;2022-11-15T00:18:54;1755.67;;;905.30;;
17133;SDS011;8682;52.120;5.252;2022-11-15T00:21:22;1412.80;;;843.93;;
17133;SDS011;8682;52.120;5.252;2022-11-15T00:23:51;1769.50;;;928.57;;
17133;SDS011;8682;52.120;5.252;2022-11-15T00:26:18;1099.37;;;671.50;;
17133;SDS011;8682;52.120;5.252;2022-11-15T00:28:45;1877.53;;;952.73;;
17133;SDS011;8682;52.120;5.252;2022-11-15T00:31:13;1999.90;;;999.90;;
17133;SDS011;8682;52.120;5.252;2022-11-15T00:33:42;1894.13;;;945.47;;
17133;SDS011;8682;52.120;5.252;2022-11-15T00:36:09;1928.97;;;954.20;;
17133;SDS011;8682;52.120;5.252;2022-11-15T00:38:37;1293.50;;;656.47;;
17133;SDS011;8682;52.120;5.252;2022-11-15T00:41:06;1818.27;;;895.50;;
17133;SDS011;8682;52.120;5.252;2022-11-15T00:43:34;1346.43;;;695.07;;
17133;SDS011;8682;52.120;5.252;2022-11-15T00:46:01;1902.80;;;926.53;;
17133;SDS011;8682;52.120;5.252;2022-11-15T00:48:28;1871.20;;;922.67;;
17133;SDS011;8682;52.120;5.252;2022-11-15T00:50:56;1265.87;;;615.67;;
17133;SDS011;8682;52.120;5.252;2022-11-15T00:53:23;1849.43;;;898.67;;
17133;SDS011;8682;52.120;5.252;2022-11-15T00:55:50;1330.63;;;635.43;;
17133;SDS011;8682;52.120;5.252;2022-11-15T00:58:19;1164.20;;;581.30;;
17133;SDS011;8682;52.120;5.252;2022-11-15T01:00:46;1793.27;;;860.27;;
17133;SDS011;8682;52.120;5.252;2022-11-15T01:03:13;1654.33;;;780.23;;
17133;SDS011;8682;52.120;5.252;2022-11-15T01:05:40;1673.33;;;783.57;;
17133;SDS011;8682;52.120;5.252;2022-11-15T01:08:10;1673.33;;;775.93;;
17133;SDS011;8682;52.120;5.252;2022-11-15T01:10:38;1738.20;;;793.83;;
17133;SDS011;8682;52.120;5.252;2022-11-15T01:13:05;826.73;;;258.60;;
17133;SDS011;8682;52.120;5.252;2022-11-15T01:15:34;939.63;;;270.07;;
17133;SDS011;8682;52.120;5.252;2022-11-15T01:18:01;939.67;;;260.50;;
17133;SDS011;8682;52.120;5.252;2022-11-15T01:20:28;943.60;;;346.60;;
17133;SDS011;8682;52.120;5.252;2022-11-15T01:22:56;1403.00;;;487.67;;
17133;SDS011;8682;52.120;5.252;2022-11-15T01:25:23;1205.17;;;471.23;;
17133;SDS011;8682;52.120;5.252;2022-11-15T01:27:50;1232.23;;;384.37;;
17133;SDS011;8682;52.120;5.252;2022-11-15T01:30:17;1230.83;;;429.23;;
17133;SDS011;8682;52.120;5.252;2022-11-15T01:32:45;1409.87;;;537.70;;
17133;SDS011;8682;52.120;5.252;2022-11-15T01:35:13;1019.77;;;381.77;;
17133;SDS011;8682;52.120;5.252;2022-11-15T01:37:40;1402.87;;;484.63;;
17133;SDS011;8682;52.120;5.252;2022-11-15T01:40:07;1320.83;;;484.87;;
17133;SDS011;8682;52.120;5.252;2022-11-15T01:42:34;1188.70;;;415.97;;
17133;SDS011;8682;52.120;5.252;2022-11-15T01:45:02;1378.50;;;489.53;;
17133;SDS011;8682;52.120;5.252;2022-11-15T01:47:29;1232.10;;;502.67;;
17133;SDS011;8682;52.120;5.252;2022-11-15T01:49:59;1293.30;;;498.77;;
17133;SDS011;8682;52.120;5.252;2022-11-15T01:52:28;1481.97;;;595.80;;
17133;SDS011;8682;52.120;5.252;2022-11-15T01:54:57;1270.77;;;500.03;;
17133;SDS011;8682;52.120;5.252;2022-11-15T01:57:25;1620.33;;;556.20;;
17133;SDS011;8682;52.120;5.252;2022-11-15T01:59:53;1155.57;;;502.80;;
17133;SDS011;8682;52.120;5.252;2022-11-15T02:02:20;1489.70;;;601.67;;
17133;SDS011;8682;52.120;5.252;2022-11-15T02:04:47;1407.63;;;629.50;;
17133;SDS011;8682;52.120;5.252;2022-11-15T02:07:17;1315.13;;;619.47;;
17133;SDS011;8682;52.120;5.252;2022-11-15T02:09:44;1328.47;;;607.07;;
17133;SDS011;8682;52.120;5.252;2022-11-15T02:12:12;1430.73;;;654.73;;
17133;SDS011;8682;52.120;5.252;2022-11-15T02:14:40;1558.10;;;688.17;;
17133;SDS011;8682;52.120;5.252;2022-11-15T02:17:12;1315.63;;;635.00;;
17133;SDS011;8682;52.120;5.252;2022-11-15T02:19:50;1208.13;;;597.03;;
17133;SDS011;8682;52.120;5.252;2022-11-15T02:22:27;1137.13;;;530.80;;
17133;SDS011;8682;52.120;5.252;2022-11-15T02:25:06;1269.90;;;582.47;;
17133;SDS011;8682;52.120;5.252;2022-11-15T02:27:39;1173.63;;;574.43;;
17133;SDS011;8682;52.120;5.252;2022-11-15T02:33:00;1372.27;;;664.13;;
17133;SDS011;8682;52.120;5.252;2022-11-15T02:35:29;1112.53;;;628.13;;
17133;SDS011;8682;52.120;5.252;2022-11-15T02:38:02;1206.83;;;638.73;;
17133;SDS011;8682;52.120;5.252;2022-11-15T02:40:34;1271.63;;;619.90;;
17133;SDS011;8682;52.120;5.252;2022-11-15T02:43:04;1313.63;;;637.30;;
17133;SDS011;8682;52.120;5.252;2022-11-15T02:45:50;1330.70;;;652.83;;
17133;SDS011;8682;52.120;5.252;2022-11-15T02:48:20;1145.13;;;573.53;;
17133;SDS011;8682;52.120;5.252;2022-11-15T02:50:48;1398.77;;;678.40;;
17133;SDS011;8682;52.120;5.252;2022-11-15T02:53:15;1405.03;;;625.97;;
17133;SDS011;8682;52.120;5.252;2022-11-15T02:55:43;1148.67;;;649.87;;
17133;SDS011;8682;52.120;5.252;2022-11-15T02:58:19;1273.73;;;636.77;;
17133;SDS011;8682;52.120;5.252;2022-11-15T03:00:51;1288.53;;;672.93;;
17133;SDS011;8682;52.120;5.252;2022-11-15T03:06:11;1395.97;;;676.00;;
17133;SDS011;8682;52.120;5.252;2022-11-15T03:08:44;1446.10;;;717.50;;
17133;SDS011;8682;52.120;5.252;2022-11-15T03:11:15;1408.03;;;677.07;;
17133;SDS011;8682;52.120;5.252;2022-11-15T03:13:44;1259.33;;;671.67;;
17133;SDS011;8682;52.120;5.252;2022-11-15T03:16:15;1337.90;;;730.20;;
17133;SDS011;8682;52.120;5.252;2022-11-15T03:18:43;1272.53;;;698.33;;
17133;SDS011;8682;52.120;5.252;2022-11-15T03:21:13;1123.97;;;690.20;;
17133;SDS011;8682;52.120;5.252;2022-11-15T03:23:41;1266.97;;;675.00;;
17133;SDS011;8682;52.120;5.252;2022-11-15T03:26:09;1310.77;;;792.40;;
17133;SDS011;8682;52.120;5.252;2022-11-15T03:28:38;1198.30;;;737.90;;
17133;SDS011;8682;52.120;5.252;2022-11-15T03:31:06;1180.70;;;728.47;;
17133;SDS011;8682;52.120;5.252;2022-11-15T03:33:50;1085.70;;;601.27;;
17133;SDS011;8682;52.120;5.252;2022-11-15T03:36:19;1162.97;;;680.30;;
17133;SDS011;8682;52.120;5.252;2022-11-15T03:38:46;1336.27;;;749.80;;
17133;SDS011;8682;52.120;5.252;2022-11-15T03:41:15;944.43;;;662.57;;
17133;SDS011;8682;52.120;5.252;2022-11-15T03:43:44;1156.40;;;722.33;;
17133;SDS011;8682;52.120;5.252;2022-11-15T03:46:13;1140.30;;;738.87;;
17133;SDS011;8682;52.120;5.252;2022-11-15T03:48:42;1110.67;;;632.43;;
17133;SDS011;8682;52.120;5.252;2022-11-15T03:51:10;1004.57;;;551.33;;
17133;SDS011;8682;52.120;5.252;2022-11-15T03:53:39;991.67;;;638.30;;
17133;SDS011;8682;52.120;5.252;2022-11-15T03:56:07;1253.67;;;708.03;;
17133;SDS011;8682;52.120;5.252;2022-11-15T03:58:34;1114.07;;;605.70;;
17133;SDS011;8682;52.120;5.252;2022-11-15T04:01:01;902.23;;;538.33;;
17133;SDS011;8682;52.120;5.252;2022-11-15T04:03:28;690.13;;;513.27;;
17133;SDS011;8682;52.120;5.252;2022-11-15T04:05:56;698.40;;;466.00;;
17133;SDS011;8682;52.120;5.252;2022-11-15T04:08:23;643.03;;;449.50;;
17133;SDS011;8682;52.120;5.252;2022-11-15T04:10:51;738.57;;;505.33;;
17133;SDS011;8682;52.120;5.252;2022-11-15T04:13:18;750.97;;;486.37;;
17133;SDS011;8682;52.120;5.252;2022-11-15T04:15:46;712.40;;;526.60;;
17133;SDS011;8682;52.120;5.252;2022-11-15T04:18:13;679.87;;;432.77;;
17133;SDS011;8682;52.120;5.252;2022-11-15T04:20:40;605.53;;;407.13;;
17133;SDS011;8682;52.120;5.252;2022-11-15T04:23:24;733.20;;;511.13;;
17133;SDS011;8682;52.120;5.252;2022-11-15T04:26:11;837.10;;;525.90;;
17133;SDS011;8682;52.120;5.252;2022-11-15T04:28:39;609.90;;;430.03;;
17133;SDS011;8682;52.120;5.252;2022-11-15T04:31:20;650.07;;;438.77;;
17133;SDS011;8682;52.120;5.252;2022-11-15T04:33:47;503.40;;;339.27;;
17133;SDS011;8682;52.120;5.252;2022-11-15T04:36:14;429.80;;;287.53;;
17133;SDS011;8682;52.120;5.252;2022-11-15T04:38:59;526.33;;;362.07;;
17133;SDS011;8682;52.120;5.252;2022-11-15T04:41:28;436.70;;;344.43;;
17133;SDS011;8682;52.120;5.252;2022-11-15T04:43:55;481.17;;;339.93;;
17133;SDS011;8682;52.120;5.252;2022-11-15T04:46:23;399.87;;;306.90;;
17133;SDS011;8682;52.120;5.252;2022-11-15T04:48:50;602.33;;;478.20;;
17133;SDS011;8682;52.120;5.252;2022-11-15T04:51:17;397.80;;;346.20;;
17133;SDS011;8682;52.120;5.252;2022-11-15T04:53:44;473.03;;;381.37;;
17133;SDS011;8682;52.120;5.252;2022-11-15T04:56:12;527.90;;;412.27;;
17133;SDS011;8682;52.120;5.252;2022-11-15T04:58:40;418.07;;;335.97;;
17133;SDS011;8682;52.120;5.252;2022-11-15T05:01:07;588.30;;;476.27;;
17133;SDS011;8682;52.120;5.252;2022-11-15T05:03:35;570.43;;;421.60;;
17133;SDS011;8682;52.120;5.252;2022-11-15T05:06:20;652.50;;;496.70;;
17133;SDS011;8682;52.120;5.252;2022-11-15T05:08:47;614.97;;;463.47;;
17133;SDS011;8682;52.120;5.252;2022-11-15T05:11:14;756.77;;;503.57;;
17133;SDS011;8682;52.120;5.252;2022-11-15T05:13:42;642.20;;;428.50;;
17133;SDS011;8682;52.120;5.252;2022-11-15T05:16:09;452.50;;;347.50;;
17133;SDS011;8682;52.120;5.252;2022-11-15T05:18:37;531.57;;;419.13;;
17133;SDS011;8682;52.120;5.252;2022-11-15T05:21:06;561.53;;;383.53;;
17133;SDS011;8682;52.120;5.252;2022-11-15T05:23:33;492.73;;;359.83;;
17133;SDS011;8682;52.120;5.252;2022-11-15T05:26:00;530.60;;;393.50;;
17133;SDS011;8682;52.120;5.252;2022-11-15T05:28:27;425.70;;;366.10;;
17133;SDS011;8682;52.120;5.252;2022-11-15T05:31:00;442.47;;;350.13;;
17133;SDS011;8682;52.120;5.252;2022-11-15T05:33:28;464.50;;;327.10;;
17133;SDS011;8682;52.120;5.252;2022-11-15T05:35:56;379.33;;;269.67;;
17133;SDS011;8682;52.120;5.252;2022-11-15T05:38:26;326.70;;;244.30;;
17133;SDS011;8682;52.120;5.252;2022-11-15T05:40:53;416.90;;;294.97;;
17133;SDS011;8682;52.120;5.252;2022-11-15T05:43:20;338.00;;;284.17;;
17133;SDS011;8682;52.120;5.252;2022-11-15T05:45:48;417.73;;;296.60;;
17133;SDS011;8682;52.120;5.252;2022-11-15T05:48:16;386.53;;;314.80;;
17133;SDS011;8682;52.120;5.252;2022-11-15T05:50:44;311.27;;;246.47;;
17133;SDS011;8682;52.120;5.252;2022-11-15T05:53:14;379.33;;;287.50;;
17133;SDS011;8682;52.120;5.252;2022-11-15T05:55:41;269.17;;;224.90;;
17133;SDS011;8682;52.120;5.252;2022-11-15T05:58:09;329.70;;;240.57;;
17133;SDS011;8682;52.120;5.252;2022-11-15T06:00:36;341.30;;;295.43;;
17133;SDS011;8682;52.120;5.252;2022-11-15T06:03:03;328.60;;;242.90;;
17133;SDS011;8682;52.120;5.252;2022-11-15T06:05:32;337.77;;;257.10;;
17133;SDS011;8682;52.120;5.252;2022-11-15T06:07:59;279.07;;;237.40;;
17133;SDS011;8682;52.120;5.252;2022-11-15T06:10:26;336.97;;;260.57;;
17133;SDS011;8682;52.120;5.252;2022-11-15T06:12:56;285.57;;;240.30;;
17133;SDS011;8682;52.120;5.252;2022-11-15T06:15:24;296.70;;;231.97;;
17133;SDS011;8682;52.120;5.252;2022-11-15T06:17:51;267.33;;;233.23;;
17133;SDS011;8682;52.120;5.252;2022-11-15T06:20:22;260.73;;;232.70;;
17133;SDS011;8682;52.120;5.252;2022-11-15T06:22:50;274.57;;;195.93;;
17133;SDS011;8682;52.120;5.252;2022-11-15T06:25:17;316.77;;;257.80;;
17133;SDS011;8682;52.120;5.252;2022-11-15T06:27:48;477.13;;;340.80;;
17133;SDS011;8682;52.120;5.252;2022-11-15T06:30:17;477.33;;;374.83;;
17133;SDS011;8682;52.120;5.252;2022-11-15T06:32:44;439.87;;;339.87;;
17133;SDS011;8682;52.120;5.252;2022-11-15T06:35:11;389.13;;;339.70;;
17133;SDS011;8682;52.120;5.252;2022-11-15T06:37:39;502.77;;;340.97;;
17133;SDS011;8682;52.120;5.252;2022-11-15T06:40:08;409.40;;;303.10;;
17133;SDS011;8682;52.120;5.252;2022-11-15T06:42:36;369.53;;;258.70;;
17133;SDS011;8682;52.120;5.252;2022-11-15T06:45:03;358.57;;;285.27;;
17133;SDS011;8682;52.120;5.252;2022-11-15T06:47:30;324.17;;;256.80;;
17133;SDS011;8682;52.120;5.252;2022-11-15T06:49:57;339.70;;;259.07;;
17133;SDS011;8682;52.120;5.252;2022-11-15T06:52:24;279.27;;;222.50;;
17133;SDS011;8682;52.120;5.252;2022-11-15T06:54:57;218.53;;;176.13;;
17133;SDS011;8682;52.120;5.252;2022-11-15T06:57:25;253.87;;;194.23;;
17133;SDS011;8682;52.120;5.252;2022-11-15T06:59:52;239.07;;;171.10;;
17133;SDS011;8682;52.120;5.252;2022-11-15T07:02:20;282.70;;;196.13;;
17133;SDS011;8682;52.120;5.252;2022-11-15T07:04:47;243.13;;;181.60;;
17133;SDS011;8682;52.120;5.252;2022-11-15T07:07:14;213.43;;;181.63;;
17133;SDS011;8682;52.120;5.252;2022-11-15T07:09:41;272.10;;;209.27;;
17133;SDS011;8682;52.120;5.252;2022-11-15T07:12:08;192.23;;;162.47;;
17133;SDS011;8682;52.120;5.252;2022-11-15T07:14:37;288.37;;;217.00;;
17133;SDS011;8682;52.120;5.252;2022-11-15T07:17:04;290.83;;;209.30;;
17133;SDS011;8682;52.120;5.252;2022-11-15T07:19:31;318.90;;;234.97;;
17133;SDS011;8682;52.120;5.252;2022-11-15T07:21:58;322.97;;;233.70;;
17133;SDS011;8682;52.120;5.252;2022-11-15T07:24:25;313.40;;;260.57;;
17133;SDS011;8682;52.120;5.252;2022-11-15T07:26:53;303.60;;;260.67;;
17133;SDS011;8682;52.120;5.252;2022-11-15T07:29:20;366.83;;;284.10;;
17133;SDS011;8682;52.120;5.252;2022-11-15T07:31:48;359.80;;;279.63;;
17133;SDS011;8682;52.120;5.252;2022-11-15T07:34:16;429.00;;;316.47;;
17133;SDS011;8682;52.120;5.252;2022-11-15T07:36:43;370.83;;;264.90;;
17133;SDS011;8682;52.120;5.252;2022-11-15T07:39:10;356.20;;;250.73;;
17133;SDS011;8682;52.120;5.252;2022-11-15T07:41:39;376.20;;;299.20;;
17133;SDS011;8682;52.120;5.252;2022-11-15T07:44:06;306.57;;;251.00;;
17133;SDS011;8682;52.120;5.252;2022-11-15T07:46:33;289.63;;;189.63;;
17133;SDS011;8682;52.120;5.252;2022-11-15T07:49:02;331.70;;;265.97;;
17133;SDS011;8682;52.120;5.252;2022-11-15T07:51:30;307.57;;;254.63;;
17133;SDS011;8682;52.120;5.252;2022-11-15T07:54:02;287.10;;;233.17;;
17133;SDS011;8682;52.120;5.252;2022-11-15T07:56:29;312.93;;;267.30;;
17133;SDS011;8682;52.120;5.252;2022-11-15T07:58:56;319.47;;;260.77;;
17133;SDS011;8682;52.120;5.252;2022-11-15T08:01:27;237.27;;;186.87;;
17133;SDS011;8682;52.120;5.252;2022-11-15T08:03:55;276.50;;;207.70;;
17133;SDS011;8682;52.120;5.252;2022-11-15T08:06:29;292.13;;;200.80;;
17133;SDS011;8682;52.120;5.252;2022-11-15T08:08:59;282.73;;;239.30;;
17133;SDS011;8682;52.120;5.252;2022-11-15T08:11:26;301.07;;;211.37;;
17133;SDS011;8682;52.120;5.252;2022-11-15T08:14:00;272.83;;;219.53;;
17133;SDS011;8682;52.120;5.252;2022-11-15T08:16:29;279.93;;;219.03;;
17133;SDS011;8682;52.120;5.252;2022-11-15T08:18:56;300.97;;;220.23;;
17133;SDS011;8682;52.120;5.252;2022-11-15T08:21:26;249.57;;;185.57;;
17133;SDS011;8682;52.120;5.252;2022-11-15T08:23:57;264.77;;;195.47;;
17133;SDS011;8682;52.120;5.252;2022-11-15T08:26:25;246.47;;;174.77;;
17133;SDS011;8682;52.120;5.252;2022-11-15T08:28:56;237.83;;;171.53;;
17133;SDS011;8682;52.120;5.252;2022-11-15T08:31:25;203.80;;;177.40;;
17133;SDS011;8682;52.120;5.252;2022-11-15T08:33:52;203.70;;;152.83;;
17133;SDS011;8682;52.120;5.252;2022-11-15T08:36:20;228.63;;;166.67;;
17133;SDS011;8682;52.120;5.252;2022-11-15T08:38:50;199.97;;;161.07;;
17133;SDS011;8682;52.120;5.252;2022-11-15T08:41:19;256.63;;;181.87;;
17133;SDS011;8682;52.120;5.252;2022-11-15T08:43:52;195.53;;;153.40;;
17133;SDS011;8682;52.120;5.252;2022-11-15T08:46:20;203.47;;;152.73;;
17133;SDS011;8682;52.120;5.252;2022-11-15T08:48:49;181.50;;;149.37;;
17133;SDS011;8682;52.120;5.252;2022-11-15T08:51:16;204.93;;;162.07;;
17133;SDS011;8682;52.120;5.252;2022-11-15T08:53:43;195.87;;;135.10;;
17133;SDS011;8682;52.120;5.252;2022-11-15T08:56:14;214.23;;;157.63;;
17133;SDS011;8682;52.120;5.252;2022-11-15T08:58:44;247.83;;;178.73;;
17133;SDS011;8682;52.120;5.252;2022-11-15T09:01:18;207.67;;;144.57;;
17133;SDS011;8682;52.120;5.252;2022-11-15T09:03:47;259.53;;;167.73;;
17133;SDS011;8682;52.120;5.252;2022-11-15T09:06:17;182.17;;;154.97;;
17133;SDS011;8682;52.120;5.252;2022-11-15T09:08:45;210.80;;;140.20;;
17133;SDS011;8682;52.120;5.252;2022-11-15T09:11:15;170.53;;;128.23;;
17133;SDS011;8682;52.120;5.252;2022-11-15T09:13:45;202.03;;;142.93;;
17133;SDS011;8682;52.120;5.252;2022-11-15T09:16:17;210.90;;;176.17;;
17133;SDS011;8682;52.120;5.252;2022-11-15T09:18:44;232.13;;;176.63;;
17133;SDS011;8682;52.120;5.252;2022-11-15T09:21:26;327.83;;;270.00;;
17133;SDS011;8682;52.120;5.252;2022-11-15T09:23:53;397.83;;;321.40;;
17133;SDS011;8682;52.120;5.252;2022-11-15T09:26:24;436.93;;;358.33;;
17133;SDS011;8682;52.120;5.252;2022-11-15T09:28:52;458.00;;;408.40;;
17133;SDS011;8682;52.120;5.252;2022-11-15T09:31:19;514.53;;;430.80;;
17133;SDS011;8682;52.120;5.252;2022-11-15T09:33:48;585.20;;;455.03;;
17133;SDS011;8682;52.120;5.252;2022-11-15T09:36:17;988.87;;;579.10;;
17133;SDS011;8682;52.120;5.252;2022-11-15T09:38:46;844.90;;;553.27;;
17133;SDS011;8682;52.120;5.252;2022-11-15T09:41:32;649.63;;;523.50;;
17133;SDS011;8682;52.120;5.252;2022-11-15T09:44:05;998.63;;;624.23;;
17133;SDS011;8682;52.120;5.252;2022-11-15T09:46:42;796.97;;;583.60;;
17133;SDS011;8682;52.120;5.252;2022-11-15T09:49:14;852.20;;;584.17;;
17133;SDS011;8682;52.120;5.252;2022-11-15T09:51:51;1052.30;;;647.53;;
17133;SDS011;8682;52.120;5.252;2022-11-15T09:54:33;740.07;;;548.33;;
17133;SDS011;8682;52.120;5.252;2022-11-15T09:59:51;979.60;;;698.37;;
17133;SDS011;8682;52.120;5.252;2022-11-15T10:02:36;1084.83;;;731.37;;
17133;SDS011;8682;52.120;5.252;2022-11-15T10:05:13;1999.90;;;894.07;;
17133;SDS011;8682;52.120;5.252;2022-11-15T10:07:53;1855.23;;;836.63;;
17133;SDS011;8682;52.120;5.252;2022-11-15T10:10:31;1986.93;;;854.10;;
17133;SDS011;8682;52.120;5.252;2022-11-15T10:13:35;1999.90;;;909.43;;
17133;SDS011;8682;52.120;5.252;2022-11-15T10:16:08;1999.90;;;880.13;;
17133;SDS011;8682;52.120;5.252;2022-11-15T10:18:43;1999.90;;;660.17;;
17133;SDS011;8682;52.120;5.252;2022-11-15T10:21:29;1999.90;;;606.73;;
17133;SDS011;8682;52.120;5.252;2022-11-15T10:24:07;1859.33;;;822.53;;
17133;SDS011;8682;52.120;5.252;2022-11-15T10:26:45;1872.67;;;853.97;;
17133;SDS011;8682;52.120;5.252;2022-11-15T10:29:17;1809.03;;;813.83;;
17133;SDS011;8682;52.120;5.252;2022-11-15T10:40:17;1999.90;;;999.90;;
17133;SDS011;8682;52.120;5.252;2022-11-15T10:43:05;1588.03;;;815.43;;
17133;SDS011;8682;52.120;5.252;2022-11-15T10:45:34;1785.33;;;864.10;;
17133;SDS011;8682;52.120;5.252;2022-11-15T10:51:05;1999.90;;;999.90;;
17133;SDS011;8682;52.120;5.252;2022-11-15T10:54:13;1484.23;;;805.40;;
17133;SDS011;8682;52.120;5.252;2022-11-15T10:56:53;1769.67;;;898.27;;
17133;SDS011;8682;52.120;5.252;2022-11-15T10:59:27;1568.67;;;865.07;;
17133;SDS011;8682;52.120;5.252;2022-11-15T11:01:55;1400.90;;;816.87;;
17133;SDS011;8682;52.120;5.252;2022-11-15T11:04:24;1228.13;;;702.03;;
17133;SDS011;8682;52.120;5.252;2022-11-15T11:08:52;1183.00;;;824.97;;
17133;SDS011;8682;52.120;5.252;2022-11-15T11:10:16;1056.00;;;870.37;;
17133;SDS011;8682;52.120;5.252;2022-11-15T11:12:44;959.60;;;763.53;;
17133;SDS011;8682;52.120;5.252;2022-11-15T11:15:14;969.33;;;868.23;;
17133;SDS011;8682;52.120;5.252;2022-11-15T11:17:49;1132.20;;;859.63;;
17133;SDS011;8682;52.120;5.252;2022-11-15T11:20:19;1023.47;;;913.80;;
17133;SDS011;8682;52.120;5.252;2022-11-15T11:23:02;1188.30;;;965.50;;
17133;SDS011;8682;52.120;5.252;2022-11-15T11:25:50;1414.93;;;981.23;;
17133;SDS011;8682;52.120;5.252;2022-11-15T11:28:33;950.60;;;822.30;;
17133;SDS011;8682;52.120;5.252;2022-11-15T11:31:12;1364.00;;;951.03;;
17133;SDS011;8682;52.120;5.252;2022-11-15T11:33:57;1324.50;;;956.33;;
17133;SDS011;8682;52.120;5.252;2022-11-15T11:36:44;1169.90;;;928.20;;
17133;SDS011;8682;52.120;5.252;2022-11-15T11:45:22;1866.77;;;920.10;;
17133;SDS011;8682;52.120;5.252;2022-11-15T11:49:59;1818.63;;;999.83;;
17133;SDS011;8682;52.120;5.252;2022-11-15T11:50:52;1389.87;;;890.87;;
17133;SDS011;8682;52.120;5.252;2022-11-15T11:53:29;1534.93;;;917.27;;
17133;SDS011;8682;52.120;5.252;2022-11-15T11:59:10;1019.97;;;450.83;;
17133;SDS011;8682;52.120;5.252;2022-11-15T12:07:40;1999.90;;;999.90;;
17133;SDS011;8682;52.120;5.252;2022-11-15T12:10:23;1999.90;;;999.90;;
17133;SDS011;8682;52.120;5.252;2022-11-15T12:12:59;1084.07;;;446.50;;
17133;SDS011;8682;52.120;5.252;2022-11-15T12:15:41;1885.33;;;847.40;;
17133;SDS011;8682;52.120;5.252;2022-11-15T12:18:30;951.37;;;360.40;;
17133;SDS011;8682;52.120;5.252;2022-11-15T12:21:13;1999.90;;;999.90;;
17133;SDS011;8682;52.120;5.252;2022-11-15T12:26:50;1701.47;;;791.43;;
17133;SDS011;8682;52.120;5.252;2022-11-15T12:29:48;1367.27;;;503.60;;
17133;SDS011;8682;52.120;5.252;2022-11-15T12:32:49;1277.27;;;467.80;;
17133;SDS011;8682;52.120;5.252;2022-11-15T12:35:34;1999.90;;;999.90;;
17133;SDS011;8682;52.120;5.252;2022-11-15T12:38:12;1999.90;;;999.90;;
17133;SDS011;8682;52.120;5.252;2022-11-15T12:49:52;350.27;;;128.57;;
17133;SDS011;8682;52.120;5.252;2022-11-15T12:52:33;1999.90;;;999.90;;
17133;SDS011;8682;52.120;5.252;2022-11-15T12:58:42;1999.90;;;999.90;;
17133;SDS011;8682;52.120;5.252;2022-11-15T13:04:28;1999.90;;;999.90;;
17133;SDS011;8682;52.120;5.252;2022-11-15T13:07:04;1999.90;;;999.90;;
17133;SDS011;8682;52.120;5.252;2022-11-15T13:09:57;1999.90;;;999.90;;
17133;SDS011;8682;52.120;5.252;2022-11-15T13:15:33;1999.90;;;999.90;;
17133;SDS011;8682;52.120;5.252;2022-11-15T13:20:50;1999.90;;;999.90;;
17133;SDS011;8682;52.120;5.252;2022-11-15T13:23:34;1999.90;;;999.90;;
17133;SDS011;8682;52.120;5.252;2022-11-15T13:26:10;1999.90;;;999.90;;
17133;SDS011;8682;52.120;5.252;2022-11-15T13:28:44;1999.90;;;999.90;;
17133;SDS011;8682;52.120;5.252;2022-11-15T13:31:35;1999.90;;;999.90;;
17133;SDS011;8682;52.120;5.252;2022-11-15T13:40:36;1999.90;;;999.90;;
17133;SDS011;8682;52.120;5.252;2022-11-15T13:43:17;1999.90;;;999.90;;
17133;SDS011;8682;52.120;5.252;2022-11-15T13:46:11;1999.90;;;999.90;;
17133;SDS011;8682;52.120;5.252;2022-11-15T13:49:24;1999.90;;;999.90;;
17133;SDS011;8682;52.120;5.252;2022-11-15T13:51:57;1482.13;;;737.20;;
17133;SDS011;8682;52.120;5.252;2022-11-15T13:54:34;1521.40;;;747.87;;
17133;SDS011;8682;52.120;5.252;2022-11-15T13:57:29;1999.90;;;999.90;;
17133;SDS011;8682;52.120;5.252;2022-11-15T14:00:30;1999.90;;;999.90;;
17133;SDS011;8682;52.120;5.252;2022-11-15T14:03:15;1999.90;;;999.90;;
17133;SDS011;8682;52.120;5.252;2022-11-15T14:06:32;1999.90;;;999.90;;
17133;SDS011;8682;52.120;5.252;2022-11-15T14:09:29;1999.90;;;999.90;;
17133;SDS011;8682;52.120;5.252;2022-11-15T14:21:19;1999.90;;;999.90;;
17133;SDS011;8682;52.120;5.252;2022-11-15T14:23:49;1999.90;;;999.90;;
17133;SDS011;8682;52.120;5.252;2022-11-15T14:33:27;1999.90;;;999.90;;
17133;SDS011;8682;52.120;5.252;2022-11-15T14:41:20;1999.90;;;999.90;;
17133;SDS011;8682;52.120;5.252;2022-11-15T14:44:05;1999.90;;;999.90;;
17133;SDS011;8682;52.120;5.252;2022-11-15T14:46:37;1999.90;;;999.90;;
17133;SDS011;8682;52.120;5.252;2022-11-15T14:49:13;1999.90;;;999.90;;
17133;SDS011;8682;52.120;5.252;2022-11-15T14:52:22;1999.90;;;999.90;;
17133;SDS011;8682;52.120;5.252;2022-11-15T15:00:50;1999.90;;;999.90;;
17133;SDS011;8682;52.120;5.252;2022-11-15T15:03:31;1999.90;;;999.90;;
17133;SDS011;8682;52.120;5.252;2022-11-15T15:06:51;1999.90;;;999.90;;
17133;SDS011;8682;52.120;5.252;2022-11-15T15:09:05;1999.90;;;999.90;;
17133;SDS011;8682;52.120;5.252;2022-11-15T15:11:52;1999.90;;;999.90;;
17133;SDS011;8682;52.120;5.252;2022-11-15T15:14:45;1999.90;;;999.90;;
17133;SDS011;8682;52.120;5.252;2022-11-15T15:20:22;1999.90;;;999.90;;
17133;SDS011;8682;52.120;5.252;2022-11-15T15:22:58;1999.90;;;999.90;;
17133;SDS011;8682;52.120;5.252;2022-11-15T15:25:33;1999.90;;;999.90;;
17133;SDS011;8682;52.120;5.252;2022-11-15T15:28:20;1999.90;;;999.90;;
17133;SDS011;8682;52.120;5.252;2022-11-15T15:30:58;1999.90;;;999.90;;
17133;SDS011;8682;52.120;5.252;2022-11-15T15:33:28;1999.90;;;999.90;;
17133;SDS011;8682;52.120;5.252;2022-11-15T15:39:02;1999.90;;;999.90;;
17133;SDS011;8682;52.120;5.252;2022-11-15T15:41:31;1999.90;;;999.90;;
17133;SDS011;8682;52.120;5.252;2022-11-15T15:44:05;1999.90;;;999.90;;
17133;SDS011;8682;52.120;5.252;2022-11-15T15:46:46;1999.90;;;999.90;;
17133;SDS011;8682;52.120;5.252;2022-11-15T15:49:13;1999.90;;;999.90;;
17133;SDS011;8682;52.120;5.252;2022-11-15T15:51:52;1999.90;;;999.90;;
17133;SDS011;8682;52.120;5.252;2022-11-15T15:54:40;1999.90;;;999.90;;
17133;SDS011;8682;52.120;5.252;2022-11-15T15:57:26;1999.90;;;999.90;;
17133;SDS011;8682;52.120;5.252;2022-11-15T16:00:02;1999.90;;;999.90;;
17133;SDS011;8682;52.120;5.252;2022-11-15T16:02:37;1999.90;;;999.90;;
17133;SDS011;8682;52.120;5.252;2022-11-15T16:05:17;1999.90;;;999.90;;
17133;SDS011;8682;52.120;5.252;2022-11-15T16:08:20;1999.90;;;999.90;;
17133;SDS011;8682;52.120;5.252;2022-11-15T16:10:40;1999.90;;;999.90;;
17133;SDS011;8682;52.120;5.252;2022-11-15T16:13:13;1999.90;;;999.90;;